createdAt,value
2018-07-21T00:01:28.166Z,8.63
2018-07-21T00:03:56.763Z,8.83
2018-07-21T00:06:25.467Z,9.80
2018-07-21T00:08:54.098Z,8.87
2018-07-21T00:11:22.865Z,10.10
2018-07-21T00:13:51.561Z,9.80
2018-07-21T00:16:20.272Z,9.13
2018-07-21T00:18:48.920Z,9.10
2018-07-21T00:21:17.571Z,10.27
2018-07-21T00:23:46.259Z,9.93
2018-07-21T00:26:14.910Z,9.67
2018-07-21T00:28:43.609Z,9.50
2018-07-21T00:31:12.282Z,8.43
2018-07-21T00:33:41.182Z,8.90
2018-07-21T00:36:09.887Z,8.83
2018-07-21T00:38:38.573Z,9.70
2018-07-21T00:41:07.565Z,9.20
2018-07-21T00:43:36.275Z,8.90
2018-07-21T00:46:05.098Z,8.83
2018-07-21T00:48:33.732Z,8.90
2018-07-21T00:51:02.392Z,8.90
2018-07-21T00:53:32.554Z,9.40
2018-07-21T00:56:02.633Z,9.40
2018-07-21T00:58:31.975Z,9.70
2018-07-21T01:01:00.896Z,10.90
2018-07-21T01:03:29.622Z,9.40
2018-07-21T01:05:58.258Z,8.47
2018-07-21T01:08:26.935Z,9.50
2018-07-21T01:10:55.756Z,9.07
2018-07-21T01:13:24.461Z,8.87
2018-07-21T01:15:53.158Z,9.67
2018-07-21T01:18:21.889Z,9.07
2018-07-21T01:20:50.554Z,9.17
2018-07-21T01:23:19.164Z,9.13
2018-07-21T01:25:47.851Z,11.33
2018-07-21T01:28:16.462Z,9.33
2018-07-21T01:30:45.223Z,9.83
2018-07-21T01:33:13.925Z,8.73
2018-07-21T01:35:42.561Z,9.00
2018-07-21T01:38:11.290Z,13.50
2018-07-21T01:40:39.944Z,9.33
2018-07-21T01:43:08.673Z,8.97
2018-07-21T01:45:37.434Z,10.53
2018-07-21T01:48:06.551Z,9.23
2018-07-21T01:50:35.365Z,9.67
2018-07-21T01:53:04.050Z,9.17
2018-07-21T01:55:32.745Z,9.10
2018-07-21T01:58:01.487Z,9.43
2018-07-21T02:00:30.504Z,8.47
2018-07-21T02:02:59.235Z,9.33
2018-07-21T02:05:27.974Z,10.80
2018-07-21T02:07:56.572Z,9.13
2018-07-21T02:10:25.316Z,9.07
2018-07-21T02:12:54.069Z,9.90
2018-07-21T02:15:22.787Z,9.00
2018-07-21T02:17:51.627Z,9.07
2018-07-21T02:20:20.335Z,9.00
2018-07-21T02:22:49.011Z,8.47
2018-07-21T02:25:17.728Z,8.67
2018-07-21T02:27:46.416Z,9.00
2018-07-21T02:30:15.094Z,8.73
2018-07-21T02:32:43.947Z,8.23
2018-07-21T02:35:12.590Z,8.87
2018-07-21T02:37:41.296Z,9.57
2018-07-21T02:40:09.968Z,8.73
2018-07-21T02:42:38.600Z,8.73
2018-07-21T02:45:07.347Z,8.80
2018-07-21T02:47:36.094Z,9.83
2018-07-21T02:50:05.038Z,8.07
2018-07-21T02:52:33.726Z,9.03
2018-07-21T02:55:02.410Z,8.70
2018-07-21T02:57:31.112Z,8.33
2018-07-21T02:59:59.812Z,8.63
2018-07-21T03:02:28.559Z,10.20
2018-07-21T03:04:57.259Z,7.83
2018-07-21T03:07:25.965Z,7.97
2018-07-21T03:09:54.656Z,8.40
2018-07-21T03:12:23.365Z,9.10
2018-07-21T03:14:52.105Z,9.67
2018-07-21T03:17:20.742Z,8.60
2018-07-21T03:19:49.467Z,8.67
2018-07-21T03:22:18.172Z,8.10
2018-07-21T03:24:46.907Z,8.37
2018-07-21T03:27:15.713Z,8.80
2018-07-21T03:29:44.376Z,8.40
2018-07-21T03:32:13.024Z,8.50
2018-07-21T03:34:41.673Z,9.83
2018-07-21T03:37:10.606Z,8.80
2018-07-21T03:39:39.214Z,8.67
2018-07-21T03:42:07.898Z,8.47
2018-07-21T03:44:36.641Z,8.83
2018-07-21T03:47:05.305Z,8.83
2018-07-21T03:49:33.954Z,8.63
2018-07-21T03:52:02.608Z,8.60
2018-07-21T03:54:31.457Z,8.80
2018-07-21T03:57:00.279Z,8.57
2018-07-21T03:59:28.966Z,8.77
2018-07-21T04:01:57.580Z,8.53
2018-07-21T04:04:26.254Z,8.20
2018-07-21T04:06:54.956Z,8.57
2018-07-21T04:09:23.696Z,8.17
2018-07-21T04:11:52.487Z,7.83
2018-07-21T04:14:21.229Z,8.17
2018-07-21T04:16:49.960Z,8.20
2018-07-21T04:19:18.646Z,8.63
2018-07-21T04:21:47.476Z,8.37
2018-07-21T04:24:16.254Z,9.07
2018-07-21T04:26:44.889Z,8.13
2018-07-21T04:29:13.454Z,10.50
2018-07-21T04:31:42.125Z,8.73
2018-07-21T04:34:10.811Z,8.33
2018-07-21T04:36:39.453Z,8.53
2018-07-21T04:39:10.106Z,8.10
2018-07-21T04:41:38.863Z,8.47
2018-07-21T04:44:07.762Z,8.37
2018-07-21T04:46:36.471Z,7.87
2018-07-21T04:49:05.405Z,8.20
2018-07-21T04:51:34.090Z,7.90
2018-07-21T04:54:03.816Z,7.53
2018-07-21T04:56:32.981Z,7.90
2018-07-21T04:59:01.575Z,9.33
2018-07-21T05:01:30.249Z,8.00
2018-07-21T05:03:58.923Z,8.30
2018-07-21T05:06:27.807Z,7.93
2018-07-21T05:08:56.492Z,7.83
2018-07-21T05:11:25.319Z,8.20
2018-07-21T05:13:53.942Z,8.00
2018-07-21T05:16:22.558Z,7.93
2018-07-21T05:18:51.277Z,10.20
2018-07-21T05:21:20.043Z,7.57
2018-07-21T05:23:48.671Z,8.30
2018-07-21T05:26:17.322Z,7.70
2018-07-21T05:28:46.076Z,7.37
2018-07-21T05:31:14.746Z,7.43
2018-07-21T05:33:43.401Z,7.50
2018-07-21T05:36:12.127Z,7.40
2018-07-21T05:38:40.843Z,7.63
2018-07-21T05:41:10.012Z,9.50
2018-07-21T05:43:38.766Z,9.70
2018-07-21T05:46:07.636Z,7.80
2018-07-21T05:48:36.426Z,8.20
2018-07-21T05:51:05.169Z,7.83
2018-07-21T05:53:33.889Z,7.97
2018-07-21T05:56:02.585Z,8.40
2018-07-21T05:58:31.274Z,8.80
2018-07-21T06:01:00.139Z,8.10
2018-07-21T06:03:28.769Z,9.77
2018-07-21T06:05:57.721Z,8.43
2018-07-21T06:08:26.380Z,7.20
2018-07-21T06:10:55.124Z,7.40
2018-07-21T06:13:23.765Z,9.83
2018-07-21T06:15:52.457Z,8.47
2018-07-21T06:18:21.151Z,11.07
2018-07-21T06:20:49.827Z,9.50
2018-07-21T06:23:18.562Z,9.60
2018-07-21T06:25:47.221Z,8.87
2018-07-21T06:28:15.794Z,9.20
2018-07-21T06:30:44.478Z,10.27
2018-07-21T06:33:13.378Z,10.57
2018-07-21T06:35:42.102Z,9.70
2018-07-21T06:38:10.961Z,8.90
2018-07-21T06:40:39.790Z,9.70
2018-07-21T06:43:08.606Z,11.47
2018-07-21T06:45:37.489Z,9.30
2018-07-21T06:48:06.440Z,9.03
2018-07-21T06:50:35.659Z,8.40
2018-07-21T06:53:04.349Z,8.97
2018-07-21T06:55:33.332Z,8.67
2018-07-21T06:58:02.199Z,9.23
2018-07-21T07:00:31.274Z,9.40
2018-07-21T07:02:59.930Z,9.27
2018-07-21T07:05:28.597Z,8.80
2018-07-21T07:07:57.298Z,9.87
2018-07-21T07:10:26.013Z,13.17
2018-07-21T07:12:54.808Z,10.33
2018-07-21T07:15:23.584Z,9.90
2018-07-21T07:17:52.310Z,9.73
2018-07-21T07:20:20.983Z,9.80
2018-07-21T07:22:49.794Z,9.50
2018-07-21T07:25:18.531Z,9.87
2018-07-21T07:27:47.355Z,9.03
2018-07-21T07:30:16.048Z,9.83
2018-07-21T07:32:44.693Z,10.73
2018-07-21T07:35:13.408Z,11.43
2018-07-21T07:37:42.059Z,10.47
2018-07-21T07:40:10.846Z,9.73
2018-07-21T07:42:39.507Z,11.40
2018-07-21T07:45:08.239Z,10.43
2018-07-21T07:47:37.004Z,16.63
2018-07-21T07:50:05.973Z,10.10
2018-07-21T07:52:34.743Z,11.20
2018-07-21T07:55:03.577Z,10.73
2018-07-21T07:57:32.393Z,9.90
2018-07-21T08:00:01.064Z,9.83
2018-07-21T08:02:29.855Z,9.93
2018-07-21T08:04:58.495Z,12.93
2018-07-21T08:07:27.324Z,11.43
2018-07-21T08:09:56.037Z,10.23
2018-07-21T08:12:24.858Z,10.87
2018-07-21T08:14:53.515Z,10.53
2018-07-21T08:17:22.161Z,10.53
2018-07-21T08:19:50.885Z,10.37
2018-07-21T08:22:19.675Z,10.60
2018-07-21T08:24:48.305Z,9.90
2018-07-21T08:27:16.970Z,10.97
2018-07-21T08:29:45.602Z,10.57
2018-07-21T08:32:14.338Z,10.60
2018-07-21T08:34:43.039Z,10.43
2018-07-21T08:37:11.627Z,11.67
2018-07-21T08:39:40.285Z,10.33
2018-07-21T08:42:09.166Z,9.80
2018-07-21T08:44:38.028Z,11.80
2018-07-21T08:47:06.951Z,11.40
2018-07-21T08:49:35.729Z,12.70
2018-07-21T08:52:04.561Z,12.23
2018-07-21T08:54:33.287Z,12.33
2018-07-21T08:57:02.238Z,12.60
2018-07-21T08:59:30.942Z,12.30
2018-07-21T09:01:59.632Z,12.57
2018-07-21T09:04:28.269Z,13.00
2018-07-21T09:06:57.051Z,12.30
2018-07-21T09:09:25.789Z,13.10
2018-07-21T09:11:54.525Z,12.10
2018-07-21T09:14:23.370Z,11.97
2018-07-21T09:16:52.552Z,11.87
2018-07-21T09:19:21.183Z,11.77
2018-07-21T09:21:49.822Z,12.50
2018-07-21T09:24:18.555Z,12.43
2018-07-21T09:26:47.217Z,11.60
2018-07-21T09:29:15.906Z,13.07
2018-07-21T09:31:44.551Z,13.23
2018-07-21T09:34:13.357Z,12.77
2018-07-21T09:36:42.105Z,12.00
2018-07-21T09:39:11.641Z,11.50
2018-07-21T09:41:40.530Z,12.13
2018-07-21T09:44:09.393Z,11.83
2018-07-21T09:46:38.717Z,12.33
2018-07-21T09:49:07.363Z,11.33
2018-07-21T09:51:36.107Z,10.40
2018-07-21T09:54:04.881Z,11.00
2018-07-21T09:56:33.641Z,13.80
2018-07-21T09:59:02.303Z,9.77
2018-07-21T10:01:31.128Z,14.00
2018-07-21T10:03:59.769Z,9.47
2018-07-21T10:06:28.702Z,8.93
2018-07-21T10:08:57.363Z,11.30
2018-07-21T10:11:26.236Z,9.53
2018-07-21T10:13:55.015Z,9.87
2018-07-21T10:16:23.699Z,9.47
2018-07-21T10:18:52.453Z,10.23
2018-07-21T10:21:21.204Z,10.50
2018-07-21T10:23:49.946Z,9.87
2018-07-21T10:26:23.907Z,13.30
2018-07-21T10:28:57.677Z,11.20
2018-07-21T10:31:26.444Z,11.90
2018-07-21T10:33:55.211Z,11.33
2018-07-21T10:36:23.963Z,10.57
2018-07-21T10:38:52.687Z,11.50
2018-07-21T10:41:21.433Z,11.60
2018-07-21T10:43:50.167Z,11.00
2018-07-21T10:46:18.774Z,11.70
2018-07-21T10:48:47.533Z,11.13
2018-07-21T10:51:16.372Z,11.50
2018-07-21T10:53:45.010Z,10.77
2018-07-21T10:56:13.779Z,10.87
2018-07-21T10:58:42.446Z,10.57
2018-07-21T11:01:11.340Z,12.17
2018-07-21T11:03:40.098Z,10.43
2018-07-21T11:06:08.868Z,10.57
2018-07-21T11:08:37.887Z,11.40
2018-07-21T11:11:06.873Z,11.50
2018-07-21T11:13:35.557Z,11.37
2018-07-21T11:16:04.247Z,10.53
2018-07-21T11:18:32.930Z,10.90
2018-07-21T11:21:01.571Z,10.27
2018-07-21T11:23:31.084Z,10.37
2018-07-21T11:25:59.917Z,9.13
2018-07-21T11:28:28.622Z,10.13
2018-07-21T11:30:57.353Z,9.10
2018-07-21T11:33:26.076Z,8.73
2018-07-21T11:35:54.978Z,9.93
2018-07-21T11:38:23.559Z,11.50
2018-07-21T11:40:52.186Z,11.20
2018-07-21T11:43:20.851Z,11.17
2018-07-21T11:45:49.525Z,14.10
2018-07-21T11:48:18.189Z,17.07
2018-07-21T11:50:46.819Z,12.07
2018-07-21T11:53:15.528Z,12.17
2018-07-21T11:55:44.302Z,11.63
2018-07-21T11:58:13.042Z,12.80
2018-07-21T12:00:41.784Z,12.63
2018-07-21T12:03:10.564Z,12.40
2018-07-21T12:05:39.210Z,12.63
2018-07-21T12:08:07.902Z,11.97
2018-07-21T12:10:36.801Z,12.33
2018-07-21T12:13:05.654Z,11.80
2018-07-21T12:15:34.420Z,11.67
2018-07-21T12:18:03.133Z,12.93
2018-07-21T12:20:31.866Z,12.73
2018-07-21T12:23:00.613Z,12.60
2018-07-21T12:25:29.267Z,12.53
2018-07-21T12:27:57.971Z,12.33
2018-07-21T12:30:26.596Z,11.40
2018-07-21T12:32:55.279Z,11.00
2018-07-21T12:35:23.969Z,11.57
2018-07-21T12:37:52.720Z,12.70
2018-07-21T12:40:21.394Z,12.43
2018-07-21T12:42:50.118Z,12.30
2018-07-21T12:45:18.743Z,12.83
2018-07-21T12:47:47.433Z,12.10
2018-07-21T12:50:16.096Z,13.43
2018-07-21T12:52:44.740Z,13.00
2018-07-21T12:55:13.548Z,13.03
2018-07-21T12:57:42.217Z,13.13
2018-07-21T13:00:11.026Z,13.13
2018-07-21T13:02:40.019Z,13.63
2018-07-21T13:06:11.150Z,12.73
2018-07-21T13:08:40.166Z,13.77
2018-07-21T13:11:09.119Z,14.50
2018-07-21T13:13:37.921Z,14.23
2018-07-21T13:16:06.672Z,14.77
2018-07-21T13:18:35.410Z,15.23
2018-07-21T13:21:04.131Z,14.23
2018-07-21T13:23:32.875Z,14.23
2018-07-21T13:26:01.590Z,14.37
2018-07-21T13:28:30.295Z,13.77
2018-07-21T13:30:59.020Z,15.13
2018-07-21T13:33:27.678Z,14.37
2018-07-21T13:35:56.386Z,14.10
2018-07-21T13:38:25.208Z,14.07
2018-07-21T13:40:53.879Z,13.10
2018-07-21T13:43:22.536Z,13.60
2018-07-21T13:45:51.216Z,13.67
2018-07-21T13:48:19.982Z,13.30
2018-07-21T13:50:48.663Z,13.50
2018-07-21T13:53:17.456Z,12.47
2018-07-21T13:55:46.360Z,12.83
2018-07-21T13:58:15.076Z,12.27
2018-07-21T14:00:43.840Z,13.03
2018-07-21T14:03:12.616Z,12.27
2018-07-21T14:05:41.421Z,13.67
2018-07-21T14:08:10.145Z,13.47
2018-07-21T14:10:39.041Z,13.23
2018-07-21T14:13:07.883Z,13.20
2018-07-21T14:15:36.959Z,14.00
2018-07-21T14:18:05.972Z,13.50
2018-07-21T14:20:34.741Z,14.67
2018-07-21T14:23:03.365Z,13.60
2018-07-21T14:25:32.280Z,14.50
2018-07-21T14:28:01.084Z,14.50
2018-07-21T14:30:29.718Z,14.27
2018-07-21T14:32:58.586Z,14.47
2018-07-21T14:35:27.309Z,13.63
2018-07-21T14:37:56.021Z,13.80
2018-07-21T14:40:24.883Z,22.50
2018-07-21T14:42:53.525Z,14.60
2018-07-21T14:45:22.248Z,14.47
2018-07-21T14:47:50.953Z,14.53
2018-07-21T14:50:19.680Z,14.27
2018-07-21T14:52:48.397Z,13.43
2018-07-21T14:55:17.320Z,13.90
2018-07-21T14:57:46.062Z,13.87
2018-07-21T15:00:14.834Z,14.83
2018-07-21T15:02:43.537Z,14.17
2018-07-21T15:05:12.193Z,13.83
2018-07-21T15:07:40.786Z,14.60
2018-07-21T15:10:09.474Z,13.90
2018-07-21T15:12:38.241Z,14.43
2018-07-21T15:15:07.762Z,14.10
2018-07-21T15:17:36.535Z,15.03
2018-07-21T15:20:05.347Z,14.47
2018-07-21T15:22:33.983Z,14.40
2018-07-21T15:25:02.618Z,15.17
2018-07-21T15:27:31.413Z,14.67
2018-07-21T15:30:00.127Z,15.17
2018-07-21T15:32:28.836Z,14.50
2018-07-21T15:34:57.455Z,15.07
2018-07-21T15:37:26.160Z,14.47
2018-07-21T15:39:54.840Z,14.77
2018-07-21T15:42:23.474Z,14.53
2018-07-21T15:44:52.165Z,15.60
2018-07-21T15:47:20.796Z,14.40
2018-07-21T15:49:49.460Z,16.17
2018-07-21T15:52:18.172Z,16.10
2018-07-21T15:54:46.818Z,16.13
2018-07-21T15:57:15.585Z,16.10
2018-07-21T15:59:44.295Z,16.23
2018-07-21T16:02:12.955Z,16.83
2018-07-21T16:04:41.811Z,15.30
2018-07-21T16:07:10.515Z,15.33
2018-07-21T16:09:39.255Z,15.70
2018-07-21T16:12:07.873Z,16.13
2018-07-21T16:14:36.604Z,18.10
2018-07-21T16:17:05.588Z,16.97
2018-07-21T16:19:34.304Z,16.87
2018-07-21T16:22:03.025Z,16.50
2018-07-21T16:24:31.679Z,16.23
2018-07-21T16:27:00.403Z,16.63
2018-07-21T16:29:29.237Z,17.60
2018-07-21T16:31:57.827Z,17.83
2018-07-21T16:34:26.587Z,17.13
2018-07-21T16:36:55.425Z,17.23
2018-07-21T16:39:24.255Z,16.97
2018-07-21T16:41:52.909Z,16.83
2018-07-21T16:44:21.545Z,17.47
2018-07-21T16:46:50.189Z,16.37
2018-07-21T16:49:18.862Z,16.97
2018-07-21T16:51:47.568Z,16.40
2018-07-21T16:54:16.273Z,16.83
2018-07-21T16:56:44.938Z,17.00
2018-07-21T16:59:13.626Z,16.47
2018-07-21T17:01:42.323Z,16.03
2018-07-21T17:04:11.038Z,16.27
2018-07-21T17:06:39.812Z,16.83
2018-07-21T17:09:09.923Z,17.07
2018-07-21T17:11:38.769Z,16.20
2018-07-21T17:14:08.030Z,16.60
2018-07-21T17:16:36.730Z,16.70
2018-07-21T17:19:05.809Z,18.33
2018-07-21T17:21:34.572Z,16.60
2018-07-21T17:24:03.262Z,17.13
2018-07-21T17:26:31.924Z,16.93
2018-07-21T17:29:00.582Z,16.13
2018-07-21T17:31:29.293Z,15.90
2018-07-21T17:33:58.062Z,16.33
2018-07-21T17:36:26.770Z,16.80
2018-07-21T17:38:55.382Z,16.10
2018-07-21T17:41:24.152Z,17.00
2018-07-21T17:43:52.796Z,16.83
2018-07-21T17:46:21.446Z,17.10
2018-07-21T17:48:50.115Z,16.37
2018-07-21T17:51:18.774Z,16.57
2018-07-21T17:53:47.402Z,17.60
2018-07-21T17:56:16.054Z,16.93
2018-07-21T17:58:45.026Z,16.43
2018-07-21T18:01:13.710Z,16.00
2018-07-21T18:03:42.444Z,16.17
2018-07-21T18:06:11.151Z,16.10
2018-07-21T18:08:39.951Z,17.10
2018-07-21T18:11:08.632Z,16.37
2018-07-21T18:13:37.331Z,17.43
2018-07-21T18:16:06.138Z,16.93
2018-07-21T18:18:34.802Z,17.33
2018-07-21T18:21:03.589Z,18.20
2018-07-21T18:23:32.329Z,17.20
2018-07-21T18:26:01.196Z,17.10
2018-07-21T18:28:29.882Z,16.97
2018-07-21T18:30:58.477Z,16.07
2018-07-21T18:33:27.230Z,17.47
2018-07-21T18:35:55.833Z,17.67
2018-07-21T18:38:24.531Z,16.67
2018-07-21T18:40:53.192Z,17.10
2018-07-21T18:43:21.974Z,16.70
2018-07-21T18:45:50.636Z,17.17
2018-07-21T18:48:19.433Z,17.70
2018-07-21T18:50:48.138Z,17.03
2018-07-21T18:53:17.163Z,17.37
2018-07-21T18:55:45.873Z,16.63
2018-07-21T18:58:14.685Z,16.43
2018-07-21T19:00:43.560Z,17.10
2018-07-21T19:03:12.270Z,17.90
2018-07-21T19:05:40.965Z,16.63
2018-07-21T19:08:13.069Z,19.53
2018-07-21T19:10:41.700Z,17.07
2018-07-21T19:13:10.558Z,16.77
2018-07-21T19:15:44.446Z,16.53
2018-07-21T19:18:13.160Z,17.47
2018-07-21T19:20:47.051Z,16.87
2018-07-21T19:23:15.826Z,17.30
2018-07-21T19:27:55.745Z,16.90
2018-07-21T19:30:24.418Z,16.67
2018-07-21T19:32:58.182Z,16.43
2018-07-21T19:35:27.576Z,17.00
2018-07-21T19:37:56.200Z,16.27
2018-07-21T19:40:24.904Z,16.97
2018-07-21T19:42:53.607Z,16.57
2018-07-21T19:48:21.354Z,16.73
2018-07-21T19:50:50.019Z,16.20
2018-07-21T19:53:18.934Z,16.60
2018-07-21T19:55:47.609Z,17.13
2018-07-21T19:58:16.371Z,17.73
2018-07-21T20:00:45.230Z,16.50
2018-07-21T20:03:14.019Z,16.23
2018-07-21T20:05:42.823Z,16.37
2018-07-21T20:08:11.533Z,15.73
2018-07-21T20:10:40.314Z,17.00
2018-07-21T20:13:09.164Z,16.73
2018-07-21T20:15:38.185Z,16.37
2018-07-21T20:18:06.940Z,17.63
2018-07-21T20:20:35.849Z,16.03
2018-07-21T20:23:04.975Z,16.27
2018-07-21T20:25:33.667Z,17.37
2018-07-21T20:28:02.400Z,16.27
2018-07-21T20:30:31.134Z,16.43
2018-07-21T20:32:59.969Z,16.23
2018-07-21T20:35:28.656Z,16.17
2018-07-21T20:37:57.577Z,16.17
2018-07-21T20:40:26.286Z,15.67
2018-07-21T20:42:54.979Z,16.37
2018-07-21T20:45:23.639Z,16.50
2018-07-21T20:47:52.347Z,15.87
2018-07-21T20:50:21.073Z,17.40
2018-07-21T20:52:49.768Z,16.40
2018-07-21T20:55:18.579Z,16.10
2018-07-21T20:57:47.274Z,16.17
2018-07-21T21:00:16.052Z,16.57
2018-07-21T21:02:44.913Z,16.73
2018-07-21T21:05:14.879Z,16.73
2018-07-21T21:07:43.594Z,16.33
2018-07-21T21:10:12.388Z,17.63
2018-07-21T21:12:41.090Z,16.10
2018-07-21T21:15:09.761Z,15.90
2018-07-21T21:17:38.582Z,16.67
2018-07-21T21:20:07.318Z,17.13
2018-07-21T21:22:36.030Z,16.43
2018-07-21T21:25:05.053Z,16.73
2018-07-21T21:27:33.692Z,17.20
2018-07-21T21:30:02.290Z,16.40
2018-07-21T21:32:30.986Z,21.07
2018-07-21T21:34:59.645Z,15.97
2018-07-21T21:37:28.367Z,16.33
2018-07-21T21:39:57.089Z,16.53
2018-07-21T21:42:25.841Z,15.60
2018-07-21T21:44:54.374Z,16.23
2018-07-21T21:47:23.029Z,16.50
2018-07-21T21:49:51.685Z,16.17
2018-07-21T21:52:20.389Z,16.53
2018-07-21T21:54:49.159Z,16.30
2018-07-21T21:57:18.084Z,17.00
2018-07-21T21:59:46.859Z,16.13
2018-07-21T22:02:15.795Z,16.37
2018-07-21T22:04:44.611Z,16.50
2018-07-21T22:07:13.497Z,15.20
2018-07-21T22:09:42.105Z,15.87
2018-07-21T22:12:10.729Z,16.63
2018-07-21T22:14:39.358Z,16.17
2018-07-21T22:17:08.024Z,17.00
2018-07-21T22:19:36.755Z,16.67
2018-07-21T22:22:05.609Z,16.67
2018-07-21T22:24:34.297Z,17.30
2018-07-21T22:27:02.984Z,17.77
2018-07-21T22:29:31.688Z,16.40
2018-07-21T22:32:00.424Z,16.87
2018-07-21T22:34:29.192Z,17.63
2018-07-21T22:36:57.964Z,16.87
2018-07-21T22:39:26.567Z,16.57
2018-07-21T22:41:55.289Z,17.73
2018-07-21T22:44:24.039Z,16.87
2018-07-21T22:46:52.873Z,17.10
2018-07-21T22:49:21.515Z,17.13
2018-07-21T22:51:50.284Z,16.73
2018-07-21T22:54:18.920Z,16.60
2018-07-21T22:56:47.884Z,15.97
2018-07-21T22:59:16.585Z,17.37
2018-07-21T23:01:45.206Z,17.40
2018-07-21T23:04:13.957Z,17.00
2018-07-21T23:06:42.788Z,16.77
2018-07-21T23:09:11.416Z,17.73
2018-07-21T23:11:40.104Z,16.80
2018-07-21T23:14:09.320Z,17.20
2018-07-21T23:16:38.021Z,17.57
2018-07-21T23:19:06.705Z,17.87
2018-07-21T23:21:35.424Z,16.80
2018-07-21T23:24:04.164Z,17.80
2018-07-21T23:26:32.871Z,18.47
2018-07-21T23:29:01.604Z,18.07
2018-07-21T23:31:30.317Z,17.47
2018-07-21T23:33:59.042Z,17.63
2018-07-21T23:36:27.725Z,16.93
2018-07-21T23:38:56.396Z,18.27
2018-07-21T23:41:25.040Z,17.63
2018-07-21T23:43:53.768Z,17.73
2018-07-21T23:46:22.464Z,17.13
2018-07-21T23:48:51.071Z,17.63
2018-07-21T23:51:19.963Z,16.63
2018-07-21T23:53:48.619Z,17.97
2018-07-21T23:56:17.296Z,17.87
2018-07-21T23:58:46.424Z,18.17
